createdAt,value
2023-01-17T00:00:49.844Z,3.83
2023-01-17T00:02:53.560Z,3.78
2023-01-17T00:04:55.175Z,2.40
2023-01-17T00:06:56.731Z,3.13
2023-01-17T00:08:59.694Z,2.97
2023-01-17T00:11:01.259Z,3.08
2023-01-17T00:13:03.317Z,4.70
2023-01-17T00:15:06.338Z,5.15
2023-01-17T00:17:08.024Z,4.10
2023-01-17T00:19:09.724Z,4.00
2023-01-17T00:21:11.285Z,3.08
2023-01-17T00:23:16.289Z,3.15
2023-01-17T00:25:21.119Z,3.70
2023-01-17T00:27:23.182Z,2.80
2023-01-17T00:29:26.785Z,3.70
2023-01-17T00:31:28.328Z,4.13
2023-01-17T00:33:30.215Z,3.78
2023-01-17T00:35:32.779Z,6.07
2023-01-17T00:37:34.409Z,2.65
2023-01-17T00:39:35.893Z,3.00
2023-01-17T00:41:38.789Z,4.15
2023-01-17T00:43:40.761Z,4.65
2023-01-17T00:45:43.982Z,4.35
2023-01-17T00:47:49.748Z,3.08
2023-01-17T00:49:51.303Z,6.30
2023-01-17T00:51:53.339Z,3.95
2023-01-17T00:53:54.962Z,2.70
2023-01-17T00:56:00.615Z,4.63
2023-01-17T00:58:06.907Z,4.30
2023-01-17T01:00:09.529Z,4.07
2023-01-17T01:02:11.318Z,3.42
2023-01-17T01:04:12.823Z,5.32
2023-01-17T01:06:14.328Z,4.25
2023-01-17T01:08:20.305Z,3.78
2023-01-17T01:10:21.871Z,2.90
2023-01-17T01:12:23.437Z,3.15
2023-01-17T01:14:26.348Z,4.72
2023-01-17T01:16:28.042Z,3.25
2023-01-17T01:18:29.695Z,5.55
2023-01-17T01:20:31.177Z,3.40
2023-01-17T01:22:32.653Z,2.85
2023-01-17T01:24:34.288Z,4.50
2023-01-17T01:26:36.194Z,5.53
2023-01-17T01:28:37.784Z,3.90
2023-01-17T01:30:40.744Z,4.47
2023-01-17T01:32:42.438Z,3.78
2023-01-17T01:34:43.983Z,4.07
2023-01-17T01:36:45.570Z,3.78
2023-01-17T01:38:47.097Z,3.35
2023-01-17T01:40:50.693Z,4.30
2023-01-17T01:42:54.097Z,3.83
2023-01-17T01:44:56.150Z,5.45
2023-01-17T01:46:59.084Z,3.80
2023-01-17T01:49:04.533Z,2.70
2023-01-17T01:51:09.614Z,3.95
2023-01-17T01:53:14.463Z,5.25
2023-01-17T01:55:19.014Z,3.58
2023-01-17T01:57:23.981Z,3.20
2023-01-17T01:59:26.033Z,4.47
2023-01-17T02:01:29.330Z,6.25
2023-01-17T02:03:33.338Z,4.38
2023-01-17T02:05:35.440Z,3.17
2023-01-17T02:07:43.302Z,4.03
2023-01-17T02:09:45.637Z,4.88
2023-01-17T02:11:48.869Z,4.18
2023-01-17T02:13:50.426Z,2.70
2023-01-17T02:16:01.598Z,3.60
2023-01-17T02:18:11.444Z,4.00
2023-01-17T02:20:42.433Z,4.40
2023-01-17T02:23:20.186Z,4.18
2023-01-17T02:25:43.770Z,3.30
2023-01-17T02:28:03.013Z,5.90
2023-01-17T02:30:27.385Z,5.50
2023-01-17T02:32:39.945Z,4.68
2023-01-17T02:34:47.253Z,3.67
2023-01-17T02:36:55.740Z,5.75
2023-01-17T02:39:05.951Z,6.18
2023-01-17T02:41:13.625Z,6.05
2023-01-17T02:43:18.349Z,4.65
2023-01-17T02:45:21.880Z,6.25
2023-01-17T02:47:25.552Z,5.50
2023-01-17T02:49:30.344Z,3.88
2023-01-17T02:51:51.203Z,3.70
2023-01-17T02:54:07.715Z,4.65
2023-01-17T02:56:19.580Z,5.10
2023-01-17T02:58:45.955Z,4.13
2023-01-17T03:01:02.592Z,5.93
2023-01-17T03:03:14.140Z,3.88
2023-01-17T03:05:20.526Z,3.83
2023-01-17T03:07:25.826Z,3.22
2023-01-17T03:09:29.980Z,5.10
2023-01-17T03:11:31.523Z,5.82
2023-01-17T03:13:33.206Z,3.53
2023-01-17T03:15:34.750Z,3.53
2023-01-17T03:17:40.898Z,6.10
2023-01-17T03:19:42.549Z,7.50
2023-01-17T03:21:44.172Z,4.68
2023-01-17T03:23:45.823Z,4.80
2023-01-17T03:25:47.396Z,7.82
2023-01-17T03:27:48.916Z,3.95
2023-01-17T03:29:50.474Z,3.85
2023-01-17T03:31:52.026Z,3.50
2023-01-17T03:33:54.990Z,5.50
2023-01-17T03:35:56.735Z,4.22
2023-01-17T03:37:58.424Z,5.55
2023-01-17T03:39:59.987Z,5.25
2023-01-17T03:42:01.591Z,3.22
2023-01-17T03:44:03.128Z,4.07
2023-01-17T03:46:06.597Z,2.90
2023-01-17T03:48:08.233Z,3.45
2023-01-17T03:50:12.691Z,4.18
2023-01-17T03:52:14.287Z,7.70
2023-01-17T03:54:15.885Z,4.90
2023-01-17T03:56:17.856Z,4.82
2023-01-17T03:58:19.609Z,6.90
2023-01-17T04:00:21.549Z,4.10
2023-01-17T04:02:23.144Z,3.38
2023-01-17T04:04:24.615Z,4.13
2023-01-17T04:06:27.534Z,4.05
2023-01-17T04:08:29.525Z,4.60
2023-01-17T04:10:31.003Z,3.22
2023-01-17T04:12:32.562Z,3.55
2023-01-17T04:14:34.122Z,4.05
2023-01-17T04:16:37.897Z,3.25
2023-01-17T04:18:39.747Z,3.75
2023-01-17T04:20:41.356Z,3.75
2023-01-17T04:22:44.210Z,5.38
2023-01-17T04:24:45.744Z,3.70
2023-01-17T04:26:47.419Z,4.38
2023-01-17T04:28:49.247Z,5.13
2023-01-17T04:30:50.835Z,3.33
2023-01-17T04:32:52.563Z,3.88
2023-01-17T04:34:54.193Z,3.08
2023-01-17T04:36:55.736Z,3.45
2023-01-17T04:38:58.698Z,3.45
2023-01-17T04:41:00.200Z,3.35
2023-01-17T04:43:01.804Z,3.60
2023-01-17T04:45:03.453Z,3.42
2023-01-17T04:47:08.014Z,3.78
2023-01-17T04:49:09.519Z,3.83
2023-01-17T04:51:11.079Z,5.75
2023-01-17T04:53:12.588Z,4.13
2023-01-17T04:55:15.586Z,6.68
2023-01-17T04:57:17.740Z,5.15
2023-01-17T04:59:19.257Z,4.25
2023-01-17T05:01:20.849Z,4.45
2023-01-17T05:03:23.033Z,7.72
2023-01-17T05:05:24.653Z,4.30
2023-01-17T05:07:26.194Z,2.95
2023-01-17T05:09:27.740Z,6.90
2023-01-17T05:11:30.645Z,5.55
2023-01-17T05:13:32.342Z,4.47
2023-01-17T05:15:33.858Z,4.70
2023-01-17T05:17:35.470Z,3.88
2023-01-17T05:19:37.249Z,4.15
2023-01-17T05:21:38.764Z,3.97
2023-01-17T05:23:40.302Z,4.72
2023-01-17T05:25:41.863Z,5.20
2023-01-17T05:27:44.727Z,3.83
2023-01-17T05:29:46.239Z,4.22
2023-01-17T05:31:47.774Z,4.13
2023-01-17T05:33:49.259Z,5.85
2023-01-17T05:35:50.816Z,7.50
2023-01-17T05:37:53.158Z,6.00
2023-01-17T05:39:54.710Z,7.57
2023-01-17T05:41:56.418Z,7.05
2023-01-17T05:43:59.335Z,5.78
2023-01-17T05:46:00.916Z,6.32
2023-01-17T05:48:03.530Z,5.65
2023-01-17T05:50:05.674Z,5.32
2023-01-17T05:52:07.305Z,4.68
2023-01-17T05:54:08.831Z,6.80
2023-01-17T05:56:10.431Z,9.05
2023-01-17T05:58:15.283Z,5.05
2023-01-17T06:00:19.060Z,4.78
2023-01-17T06:02:20.632Z,5.38
2023-01-17T06:04:22.203Z,5.30
2023-01-17T06:06:23.766Z,6.93
2023-01-17T06:08:25.437Z,4.82
2023-01-17T06:10:27.657Z,4.22
2023-01-17T06:12:29.373Z,6.90
2023-01-17T06:14:30.961Z,4.70
2023-01-17T06:16:33.840Z,4.78
2023-01-17T06:18:35.421Z,6.13
2023-01-17T06:20:37.336Z,6.32
2023-01-17T06:22:39.054Z,6.60
2023-01-17T06:24:40.623Z,5.40
2023-01-17T06:26:43.473Z,5.28
2023-01-17T06:28:45.020Z,5.80
2023-01-17T06:30:47.418Z,4.80
2023-01-17T06:32:53.721Z,7.10
2023-01-17T06:34:55.286Z,5.32
2023-01-17T06:36:57.063Z,7.45
2023-01-17T06:38:59.041Z,5.15
2023-01-17T06:41:04.169Z,5.47
2023-01-17T06:43:05.961Z,5.75
2023-01-17T06:45:08.654Z,6.53
2023-01-17T06:47:10.229Z,5.07
2023-01-17T06:49:13.082Z,6.63
2023-01-17T06:51:14.878Z,7.25
2023-01-17T06:53:16.635Z,5.70
2023-01-17T06:55:18.153Z,4.63
2023-01-17T06:57:19.702Z,5.60
2023-01-17T06:59:21.208Z,5.70
2023-01-17T07:01:23.217Z,6.35
2023-01-17T07:03:26.301Z,5.03
2023-01-17T07:05:29.190Z,7.45
2023-01-17T07:07:33.775Z,4.60
2023-01-17T07:09:35.515Z,6.57
2023-01-17T07:11:37.121Z,6.55
2023-01-17T07:13:39.357Z,4.70
2023-01-17T07:15:40.969Z,7.00
2023-01-17T07:17:42.546Z,6.25
2023-01-17T07:19:44.083Z,5.18
2023-01-17T07:21:47.129Z,7.07
2023-01-17T07:23:48.876Z,10.20
2023-01-17T07:25:54.466Z,9.23
2023-01-17T07:27:56.153Z,6.20
2023-01-17T07:29:57.813Z,12.63
2023-01-17T07:31:59.481Z,10.57
2023-01-17T07:34:01.057Z,8.80
2023-01-17T07:36:04.662Z,8.35
2023-01-17T07:38:07.655Z,9.82
2023-01-17T07:40:10.564Z,7.22
2023-01-17T07:42:12.139Z,10.30
2023-01-17T07:44:13.962Z,16.98
2023-01-17T07:46:15.548Z,10.27
2023-01-17T07:48:18.141Z,9.85
2023-01-17T07:50:19.631Z,9.70
2023-01-17T07:52:21.188Z,19.10
2023-01-17T07:54:24.090Z,13.80
2023-01-17T07:56:25.628Z,10.50
2023-01-17T07:58:27.363Z,12.02
2023-01-17T08:00:29.263Z,9.13
2023-01-17T08:02:30.930Z,10.55
2023-01-17T08:04:32.744Z,11.75
2023-01-17T08:06:34.281Z,13.25
2023-01-17T08:08:35.818Z,11.50
2023-01-17T08:10:38.844Z,10.07
2023-01-17T08:12:40.361Z,10.07
2023-01-17T08:14:41.926Z,10.13
2023-01-17T08:16:43.570Z,8.45
2023-01-17T08:18:45.153Z,7.13
2023-01-17T08:20:47.027Z,7.22
2023-01-17T08:22:48.633Z,6.20
2023-01-17T08:24:50.206Z,7.60
2023-01-17T08:26:53.279Z,5.60
2023-01-17T08:28:55.907Z,7.88
2023-01-17T08:30:57.501Z,9.10
2023-01-17T08:32:59.067Z,5.95
2023-01-17T08:35:00.660Z,10.13
2023-01-17T08:37:02.251Z,7.40
2023-01-17T08:39:03.884Z,9.90
2023-01-17T08:41:05.967Z,9.30
2023-01-17T08:43:09.567Z,4.78
2023-01-17T08:45:12.565Z,7.03
2023-01-17T08:47:14.181Z,5.65
2023-01-17T08:49:15.699Z,7.10
2023-01-17T08:51:17.225Z,12.55
2023-01-17T08:53:22.487Z,12.15
2023-01-17T08:55:24.089Z,12.05
2023-01-17T08:57:25.687Z,4.90
2023-01-17T08:59:29.146Z,4.82
2023-01-17T09:01:32.426Z,4.28
2023-01-17T09:03:34.297Z,6.28
2023-01-17T09:05:35.886Z,5.95
2023-01-17T09:07:37.439Z,4.78
2023-01-17T09:09:39.017Z,4.20
2023-01-17T09:11:40.792Z,5.05
2023-01-17T09:13:42.626Z,5.43
2023-01-17T09:15:45.534Z,7.53
2023-01-17T09:17:47.241Z,6.40
2023-01-17T09:19:48.921Z,4.68
2023-01-17T09:21:50.564Z,4.95
2023-01-17T09:23:52.378Z,6.00
2023-01-17T09:25:54.145Z,5.20
2023-01-17T09:27:55.653Z,5.30
2023-01-17T09:29:57.398Z,6.30
2023-01-17T09:32:00.368Z,6.38
2023-01-17T09:34:01.910Z,7.75
2023-01-17T09:36:04.492Z,8.23
2023-01-17T09:38:06.030Z,8.40
2023-01-17T09:40:13.619Z,8.07
2023-01-17T09:42:25.889Z,5.63
2023-01-17T09:44:35.327Z,5.65
2023-01-17T09:46:44.440Z,11.82
2023-01-17T09:48:49.225Z,11.07
2023-01-17T09:50:55.034Z,18.73
2023-01-17T09:53:00.482Z,16.65
2023-01-17T09:55:02.038Z,7.40
2023-01-17T09:57:13.537Z,7.10
2023-01-17T09:59:32.710Z,5.32
2023-01-17T10:01:45.204Z,6.97
2023-01-17T10:04:06.779Z,8.10
2023-01-17T10:06:26.465Z,5.15
2023-01-17T10:08:40.351Z,5.97
2023-01-17T10:10:46.220Z,7.20
2023-01-17T10:12:53.917Z,4.82
2023-01-17T10:15:16.130Z,6.95
2023-01-17T10:17:29.441Z,4.03
2023-01-17T10:19:45.681Z,4.45
2023-01-17T10:22:26.697Z,3.30
2023-01-17T10:25:04.464Z,3.67
2023-01-17T10:27:18.285Z,4.90
2023-01-17T10:29:21.266Z,5.72
2023-01-17T10:31:24.287Z,5.55
2023-01-17T10:33:29.779Z,4.10
2023-01-17T10:35:36.843Z,4.05
2023-01-17T10:37:42.329Z,6.78
2023-01-17T10:39:47.785Z,4.03
2023-01-17T10:41:54.108Z,5.70
2023-01-17T10:44:03.978Z,4.65
2023-01-17T10:46:08.792Z,4.82
2023-01-17T10:48:15.443Z,7.25
2023-01-17T10:50:17.248Z,4.63
2023-01-17T10:52:34.730Z,4.10
2023-01-17T10:54:55.673Z,7.72
2023-01-17T10:56:58.515Z,5.50
2023-01-17T10:59:16.387Z,11.23
2023-01-17T11:01:21.036Z,7.20
2023-01-17T11:03:22.821Z,5.15
2023-01-17T11:05:26.860Z,4.30
2023-01-17T11:07:30.206Z,3.90
2023-01-17T11:09:38.508Z,4.43
2023-01-17T11:11:46.888Z,6.32
2023-01-17T11:13:50.632Z,5.47
2023-01-17T11:15:54.322Z,4.65
2023-01-17T11:18:02.298Z,6.05
2023-01-17T11:20:23.422Z,4.35
2023-01-17T11:22:25.153Z,4.10
2023-01-17T11:24:35.049Z,4.32
2023-01-17T11:26:44.263Z,5.30
2023-01-17T11:28:45.965Z,6.47
2023-01-17T11:30:51.851Z,3.80
2023-01-17T11:32:55.515Z,4.25
2023-01-17T11:35:15.294Z,5.28
2023-01-17T11:37:20.189Z,4.18
2023-01-17T11:39:25.195Z,6.13
2023-01-17T11:41:33.943Z,3.28
2023-01-17T11:43:52.435Z,4.80
2023-01-17T11:46:02.819Z,5.57
2023-01-17T11:48:10.533Z,5.75
2023-01-17T11:50:24.406Z,4.75
2023-01-17T11:52:33.753Z,9.40
2023-01-17T11:54:37.146Z,6.22
2023-01-17T11:56:40.683Z,8.73
2023-01-17T11:58:42.764Z,10.02
2023-01-17T12:00:49.112Z,7.85
2023-01-17T12:03:10.747Z,4.95
2023-01-17T12:05:40.380Z,4.20
2023-01-17T12:07:53.423Z,5.40
2023-01-17T12:10:05.211Z,3.90
2023-01-17T12:12:16.525Z,3.63
2023-01-17T12:14:30.061Z,5.97
2023-01-17T12:16:48.770Z,6.13
2023-01-17T12:18:55.139Z,6.22
2023-01-17T12:21:15.165Z,6.97
2023-01-17T12:23:47.361Z,4.68
2023-01-17T12:26:05.601Z,7.03
2023-01-17T12:28:25.075Z,5.47
2023-01-17T12:30:43.304Z,4.88
2023-01-17T12:33:03.927Z,8.77
2023-01-17T12:35:15.076Z,4.32
2023-01-17T12:37:22.796Z,3.42
2023-01-17T12:39:30.731Z,7.53
2023-01-17T12:41:36.545Z,8.07
2023-01-17T12:43:44.479Z,6.90
2023-01-17T12:45:49.317Z,6.60
2023-01-17T12:47:59.625Z,7.82
2023-01-17T12:50:08.288Z,4.72
2023-01-17T12:52:19.419Z,4.07
2023-01-17T12:54:27.243Z,4.22
2023-01-17T12:56:34.398Z,4.18
2023-01-17T12:58:40.436Z,8.32
2023-01-17T13:00:45.332Z,6.18
2023-01-17T13:02:52.817Z,7.20
2023-01-17T13:05:00.689Z,4.65
2023-01-17T13:07:12.453Z,5.45
2023-01-17T13:09:18.182Z,8.23
2023-01-17T13:11:24.650Z,5.68
2023-01-17T13:13:27.892Z,4.88
2023-01-17T13:15:35.918Z,5.75
2023-01-17T13:17:46.350Z,7.78
2023-01-17T13:19:52.574Z,9.90
2023-01-17T13:21:56.235Z,6.78
2023-01-17T13:24:15.776Z,6.10
2023-01-17T13:26:28.199Z,8.60
2023-01-17T13:28:43.497Z,4.82
2023-01-17T13:31:12.486Z,5.70
2023-01-17T13:33:25.579Z,4.80
2023-01-17T13:35:32.905Z,3.53
2023-01-17T13:37:52.435Z,3.80
2023-01-17T13:40:17.947Z,5.90
2023-01-17T13:42:27.362Z,4.47
2023-01-17T13:44:29.786Z,7.22
2023-01-17T13:46:31.522Z,3.00
2023-01-17T13:48:35.628Z,10.52
2023-01-17T13:50:50.040Z,5.65
2023-01-17T13:52:51.592Z,2.22
2023-01-17T13:54:57.483Z,4.22
2023-01-17T13:57:33.736Z,4.10
2023-01-17T13:59:35.294Z,6.57
2023-01-17T14:01:50.786Z,3.10
2023-01-17T14:04:05.896Z,4.07
2023-01-17T14:06:29.312Z,3.25
2023-01-17T14:08:30.929Z,3.50
2023-01-17T14:10:38.507Z,3.47
2023-01-17T14:12:40.113Z,3.97
2023-01-17T14:14:50.466Z,4.10
2023-01-17T14:16:52.098Z,2.80
2023-01-17T14:18:55.055Z,5.45
2023-01-17T14:21:12.518Z,5.18
2023-01-17T14:23:35.152Z,5.68
2023-01-17T14:25:40.301Z,2.58
2023-01-17T14:27:47.917Z,5.15
2023-01-17T14:29:54.379Z,3.53
2023-01-17T14:32:01.025Z,5.82
2023-01-17T14:34:12.371Z,3.17
2023-01-17T14:36:24.594Z,2.70
2023-01-17T14:38:28.089Z,5.28
2023-01-17T14:40:31.396Z,8.93
2023-01-17T14:42:33.303Z,3.75
2023-01-17T14:44:34.960Z,5.50
2023-01-17T14:46:36.569Z,3.47
2023-01-17T14:48:40.328Z,3.30
2023-01-17T14:50:43.132Z,5.40
2023-01-17T14:52:46.194Z,3.83
2023-01-17T14:54:48.683Z,3.42
2023-01-17T14:56:50.330Z,4.00
2023-01-17T14:59:11.886Z,4.80
2023-01-17T15:01:15.142Z,6.25
2023-01-17T15:03:17.023Z,6.05
2023-01-17T15:05:21.943Z,3.10
2023-01-17T15:07:23.811Z,5.95
2023-01-17T15:09:29.723Z,6.90
2023-01-17T15:11:35.240Z,5.88
2023-01-17T15:13:44.811Z,5.13
2023-01-17T15:15:46.962Z,4.10
2023-01-17T15:17:48.602Z,7.10
2023-01-17T15:19:55.730Z,6.57
2023-01-17T15:21:57.473Z,8.25
2023-01-17T15:24:02.157Z,6.10
2023-01-17T15:26:07.497Z,13.20
2023-01-17T15:28:12.288Z,8.00
2023-01-17T15:30:23.181Z,5.53
2023-01-17T15:32:26.034Z,6.97
2023-01-17T15:34:30.197Z,5.18
2023-01-17T15:36:32.541Z,5.13
2023-01-17T15:38:39.253Z,5.57
2023-01-17T15:40:43.052Z,8.27
2023-01-17T15:42:49.096Z,4.90
2023-01-17T15:44:54.455Z,4.20
2023-01-17T15:46:56.460Z,6.70
2023-01-17T15:49:22.777Z,4.32
2023-01-17T15:51:32.287Z,4.97
2023-01-17T15:53:35.886Z,10.77
2023-01-17T15:55:38.840Z,8.75
2023-01-17T15:57:40.697Z,8.55
2023-01-17T15:59:46.230Z,7.75
2023-01-17T16:01:53.842Z,13.43
2023-01-17T16:03:55.736Z,17.67
2023-01-17T16:05:59.184Z,12.82
2023-01-17T16:08:42.516Z,10.73
2023-01-17T16:10:44.818Z,8.13
2023-01-17T16:12:47.485Z,6.93
2023-01-17T16:15:10.461Z,5.03
2023-01-17T16:17:17.581Z,7.82
2023-01-17T16:19:19.093Z,6.22
2023-01-17T16:21:24.123Z,9.30
2023-01-17T16:23:25.800Z,7.35
2023-01-17T16:25:27.423Z,6.00
2023-01-17T16:27:30.104Z,5.90
2023-01-17T16:29:31.640Z,7.82
2023-01-17T16:31:34.692Z,8.73
2023-01-17T16:33:36.271Z,11.45
2023-01-17T16:35:37.895Z,11.60
2023-01-17T16:37:39.434Z,10.15
2023-01-17T16:39:41.099Z,12.77
2023-01-17T16:41:42.665Z,6.75
2023-01-17T16:43:44.247Z,9.52
2023-01-17T16:45:47.523Z,12.50
2023-01-17T16:47:51.855Z,21.30
2023-01-17T16:49:53.626Z,10.02
2023-01-17T16:51:55.161Z,11.60
2023-01-17T16:53:56.715Z,15.77
2023-01-17T16:56:05.140Z,9.77
2023-01-17T16:58:06.730Z,18.35
2023-01-17T17:00:10.712Z,15.82
2023-01-17T17:02:12.438Z,14.55
2023-01-17T17:04:15.355Z,13.35
2023-01-17T17:06:16.892Z,11.18
2023-01-17T17:08:18.620Z,13.70
2023-01-17T17:10:21.662Z,10.70
2023-01-17T17:12:23.224Z,9.32
2023-01-17T17:14:24.799Z,10.15
2023-01-17T17:16:28.937Z,11.95
2023-01-17T17:18:30.578Z,8.75
2023-01-17T17:20:33.482Z,8.05
2023-01-17T17:22:34.999Z,13.43
2023-01-17T17:24:36.641Z,8.52
2023-01-17T17:26:38.228Z,11.00
2023-01-17T17:28:39.824Z,10.90
2023-01-17T17:30:41.415Z,10.05
2023-01-17T17:32:45.835Z,12.15
2023-01-17T17:34:47.626Z,9.38
2023-01-17T17:36:51.922Z,11.13
2023-01-17T17:38:54.430Z,10.63
2023-01-17T17:40:55.976Z,12.20
2023-01-17T17:42:57.520Z,13.63
2023-01-17T17:44:59.334Z,10.48
2023-01-17T17:47:01.200Z,11.13
2023-01-17T17:49:03.680Z,10.63
2023-01-17T17:51:05.767Z,8.38
2023-01-17T17:53:08.704Z,9.25
2023-01-17T17:55:10.795Z,6.97
2023-01-17T17:57:12.326Z,9.23
2023-01-17T17:59:15.437Z,10.82
2023-01-17T18:01:17.112Z,24.52
2023-01-17T18:03:18.740Z,17.65
2023-01-17T18:05:20.311Z,16.08
2023-01-17T18:07:21.908Z,14.50
2023-01-17T18:09:25.036Z,12.05
2023-01-17T18:11:27.755Z,16.95
2023-01-17T18:13:30.579Z,12.60
2023-01-17T18:15:32.166Z,17.02
2023-01-17T18:17:33.882Z,11.38
2023-01-17T18:19:35.594Z,14.63
2023-01-17T18:21:38.936Z,12.60
2023-01-17T18:23:43.098Z,9.23
2023-01-17T18:25:46.058Z,28.58
2023-01-17T18:27:47.608Z,16.35
2023-01-17T18:29:49.152Z,19.48
2023-01-17T18:31:51.754Z,10.57
2023-01-17T18:33:54.072Z,8.77
2023-01-17T18:35:56.806Z,7.75
2023-01-17T18:37:59.459Z,9.93
2023-01-17T18:40:01.057Z,10.35
2023-01-17T18:42:04.403Z,6.80
2023-01-17T18:44:06.843Z,22.05
2023-01-17T18:46:09.880Z,10.18
2023-01-17T18:48:11.481Z,10.68
2023-01-17T18:50:13.185Z,12.60
2023-01-17T18:52:14.710Z,24.67
2023-01-17T18:54:16.317Z,10.80
2023-01-17T18:56:20.205Z,19.75
2023-01-17T18:58:23.941Z,9.80
2023-01-17T19:00:25.788Z,7.32
2023-01-17T19:02:27.362Z,8.05
2023-01-17T19:04:28.968Z,9.10
2023-01-17T19:06:32.949Z,10.00
2023-01-17T19:08:35.027Z,12.30
2023-01-17T19:10:36.648Z,13.88
2023-01-17T19:12:38.346Z,16.15
2023-01-17T19:14:41.295Z,18.77
2023-01-17T19:16:43.610Z,15.93
2023-01-17T19:18:45.384Z,16.13
2023-01-17T19:20:46.996Z,15.45
2023-01-17T19:22:48.630Z,15.82
2023-01-17T19:24:50.222Z,14.63
2023-01-17T19:26:51.887Z,17.65
2023-01-17T19:28:55.193Z,14.68
2023-01-17T19:31:06.292Z,13.35
2023-01-17T19:33:07.905Z,12.05
2023-01-17T19:35:09.858Z,11.55
2023-01-17T19:37:11.626Z,10.88
2023-01-17T19:39:13.191Z,7.40
2023-01-17T19:41:17.035Z,12.68
2023-01-17T19:43:18.601Z,10.48
2023-01-17T19:45:20.147Z,9.57
2023-01-17T19:47:23.067Z,10.50
2023-01-17T19:49:24.704Z,14.05
2023-01-17T19:51:26.983Z,11.15
2023-01-17T19:53:28.593Z,9.75
2023-01-17T19:55:30.137Z,7.55
2023-01-17T19:57:31.906Z,11.98
2023-01-17T19:59:33.480Z,9.90
2023-01-17T20:01:35.256Z,13.25
2023-01-17T20:03:38.842Z,13.23
2023-01-17T20:05:40.445Z,10.32
2023-01-17T20:07:42.038Z,8.80
2023-01-17T20:09:43.682Z,10.63
2023-01-17T20:11:45.258Z,5.72
2023-01-17T20:13:47.589Z,6.60
2023-01-17T20:15:52.313Z,6.25
2023-01-17T20:17:54.068Z,9.23
2023-01-17T20:19:57.233Z,5.80
2023-01-17T20:21:58.842Z,5.90
2023-01-17T20:24:01.092Z,9.70
2023-01-17T20:26:02.981Z,6.65
2023-01-17T20:28:04.532Z,7.53
2023-01-17T20:30:19.225Z,6.53
2023-01-17T20:32:21.852Z,6.35
2023-01-17T20:34:23.506Z,7.22
2023-01-17T20:36:27.020Z,6.80
2023-01-17T20:38:29.807Z,9.70
2023-01-17T20:40:31.399Z,6.43
2023-01-17T20:42:35.935Z,5.68
2023-01-17T20:44:37.517Z,6.72
2023-01-17T20:46:40.833Z,6.43
2023-01-17T20:48:46.794Z,5.53
2023-01-17T20:50:48.335Z,6.13
2023-01-17T20:52:51.241Z,6.57
2023-01-17T20:54:52.842Z,7.75
2023-01-17T20:56:54.425Z,8.70
2023-01-17T20:58:56.090Z,6.38
2023-01-17T21:00:58.667Z,10.68
2023-01-17T21:03:00.303Z,7.28
2023-01-17T21:05:01.877Z,7.85
2023-01-17T21:07:03.781Z,8.77
2023-01-17T21:09:07.494Z,7.57
2023-01-17T21:11:11.194Z,8.68
2023-01-17T21:13:12.787Z,8.30
2023-01-17T21:15:14.463Z,13.25
2023-01-17T21:17:16.097Z,10.50
2023-01-17T21:19:17.679Z,10.35
2023-01-17T21:21:21.619Z,8.90
2023-01-17T21:23:23.232Z,11.70
2023-01-17T21:25:26.167Z,8.68
2023-01-17T21:27:27.743Z,16.90
2023-01-17T21:29:29.492Z,6.93
2023-01-17T21:31:31.390Z,11.40
2023-01-17T21:33:33.038Z,10.68
2023-01-17T21:35:34.616Z,7.40
2023-01-17T21:37:36.318Z,6.03
2023-01-17T21:39:38.244Z,6.57
2023-01-17T21:41:43.096Z,6.35
2023-01-17T21:43:44.698Z,7.63
2023-01-17T21:45:46.434Z,6.43
2023-01-17T21:47:48.046Z,5.57
2023-01-17T21:49:49.584Z,5.22
2023-01-17T21:51:51.357Z,6.40
2023-01-17T21:53:52.958Z,6.45
2023-01-17T21:55:59.863Z,6.38
2023-01-17T21:58:02.788Z,7.07
2023-01-17T22:00:05.665Z,6.65
2023-01-17T22:02:07.302Z,8.60
2023-01-17T22:04:08.926Z,8.40
2023-01-17T22:06:10.620Z,6.72
2023-01-17T22:08:14.907Z,6.70
2023-01-17T22:10:17.168Z,5.53
2023-01-17T22:12:19.059Z,6.15
2023-01-17T22:14:21.980Z,5.70
2023-01-17T22:16:25.234Z,6.45
2023-01-17T22:18:28.111Z,7.07
2023-01-17T22:20:29.723Z,31.00
2023-01-17T22:22:32.286Z,7.07
2023-01-17T22:24:33.921Z,5.05
2023-01-17T22:26:35.501Z,5.18
2023-01-17T22:28:38.153Z,5.20
2023-01-17T22:30:41.064Z,5.75
2023-01-17T22:32:42.699Z,6.68
2023-01-17T22:34:44.547Z,4.82
2023-01-17T22:36:46.150Z,6.03
2023-01-17T22:38:47.787Z,6.45
2023-01-17T22:40:49.359Z,4.70
2023-01-17T22:42:51.333Z,4.35
2023-01-17T22:44:52.942Z,5.03
2023-01-17T22:46:56.295Z,5.05
2023-01-17T22:48:58.467Z,7.43
2023-01-17T22:51:02.366Z,4.32
2023-01-17T22:53:04.105Z,6.15
2023-01-17T22:55:06.203Z,5.38
2023-01-17T22:57:07.781Z,7.55
2023-01-17T22:59:09.285Z,6.50
2023-01-17T23:01:12.873Z,4.68
2023-01-17T23:03:15.896Z,5.10
2023-01-17T23:05:17.507Z,5.97
2023-01-17T23:07:19.024Z,8.23
2023-01-17T23:09:20.699Z,6.63
2023-01-17T23:11:24.999Z,6.30
2023-01-17T23:13:26.614Z,6.13
2023-01-17T23:15:28.325Z,6.45
2023-01-17T23:17:29.977Z,4.80
2023-01-17T23:19:38.107Z,4.80
2023-01-17T23:21:39.748Z,5.60
2023-01-17T23:23:41.240Z,5.30
2023-01-17T23:25:42.847Z,6.60
2023-01-17T23:27:46.072Z,5.70
2023-01-17T23:29:47.560Z,5.70
2023-01-17T23:31:49.050Z,10.88
2023-01-17T23:33:50.615Z,27.67
2023-01-17T23:35:53.489Z,11.68
2023-01-17T23:37:55.631Z,12.48
2023-01-17T23:39:57.230Z,12.18
2023-01-17T23:41:58.765Z,17.73
2023-01-17T23:44:00.332Z,13.68
2023-01-17T23:46:02.618Z,11.38
2023-01-17T23:48:05.757Z,11.13
2023-01-17T23:50:08.540Z,13.82
2023-01-17T23:52:11.474Z,9.88
2023-01-17T23:54:13.131Z,7.60
2023-01-17T23:56:18.000Z,14.38
2023-01-17T23:58:21.603Z,10.43
